sensor_id;sensor_type;location;lat;lon;timestamp;pressure;altitude;pressure_sealevel;temperature;humidity
34482;BME280;20720;48.886;9.388;2023-05-23T00:01:32;98076.72;;;20.11;100.00
34482;BME280;20720;48.886;9.388;2023-05-23T00:04:01;98089.56;;;20.44;100.00
34482;BME280;20720;48.886;9.388;2023-05-23T00:06:27;98087.69;;;20.44;100.00
34482;BME280;20720;48.886;9.388;2023-05-23T00:08:52;98100.00;;;20.45;100.00
34482;BME280;20720;48.886;9.388;2023-05-23T00:11:17;98108.81;;;20.36;100.00
34482;BME280;20720;48.886;9.388;2023-05-23T00:13:44;98100.25;;;20.34;100.00
34482;BME280;20720;48.886;9.388;2023-05-23T00:16:09;98102.66;;;20.20;100.00
34482;BME280;20720;48.886;9.388;2023-05-23T00:18:36;98104.00;;;20.23;100.00
34482;BME280;20720;48.886;9.388;2023-05-23T00:21:01;98108.25;;;20.19;100.00
34482;BME280;20720;48.886;9.388;2023-05-23T00:23:28;98103.47;;;20.36;100.00
34482;BME280;20720;48.886;9.388;2023-05-23T00:25:56;98102.34;;;20.02;100.00
34482;BME280;20720;48.886;9.388;2023-05-23T00:28:22;98102.88;;;20.14;100.00
34482;BME280;20720;48.886;9.388;2023-05-23T00:30:47;98106.34;;;20.09;100.00
34482;BME280;20720;48.886;9.388;2023-05-23T00:33:14;98099.09;;;19.85;100.00
34482;BME280;20720;48.886;9.388;2023-05-23T00:35:40;98088.78;;;19.31;100.00
34482;BME280;20720;48.886;9.388;2023-05-23T00:38:06;98063.50;;;18.82;100.00
34482;BME280;20720;48.886;9.388;2023-05-23T00:40:32;98072.28;;;19.34;100.00
34482;BME280;20720;48.886;9.388;2023-05-23T00:42:58;98084.63;;;19.50;100.00
34482;BME280;20720;48.886;9.388;2023-05-23T00:45:23;98088.13;;;19.76;100.00
34482;BME280;20720;48.886;9.388;2023-05-23T00:47:48;98093.19;;;19.73;100.00
34482;BME280;20720;48.886;9.388;2023-05-23T00:50:15;98107.09;;;19.90;100.00
34482;BME280;20720;48.886;9.388;2023-05-23T00:52:42;98096.63;;;19.58;100.00
34482;BME280;20720;48.886;9.388;2023-05-23T00:55:08;98095.78;;;19.47;100.00
34482;BME280;20720;48.886;9.388;2023-05-23T00:57:35;98088.94;;;19.72;100.00
34482;BME280;20720;48.886;9.388;2023-05-23T01:00:07;98106.56;;;19.88;100.00
34482;BME280;20720;48.886;9.388;2023-05-23T01:02:36;98110.47;;;19.50;100.00
34482;BME280;20720;48.886;9.388;2023-05-23T01:05:05;98108.97;;;19.89;100.00
34482;BME280;20720;48.886;9.388;2023-05-23T01:07:31;98119.13;;;19.92;100.00
34482;BME280;20720;48.886;9.388;2023-05-23T01:09:56;98115.03;;;19.54;100.00
34482;BME280;20720;48.886;9.388;2023-05-23T01:15:13;98120.69;;;19.73;100.00
34482;BME280;20720;48.886;9.388;2023-05-23T01:18:15;98132.72;;;19.91;100.00
34482;BME280;20720;48.886;9.388;2023-05-23T01:20:52;98139.88;;;19.80;100.00
34482;BME280;20720;48.886;9.388;2023-05-23T01:23:24;98137.72;;;19.67;100.00
34482;BME280;20720;48.886;9.388;2023-05-23T01:28:28;98132.16;;;19.84;100.00
34482;BME280;20720;48.886;9.388;2023-05-23T01:31:01;98125.19;;;19.67;100.00
34482;BME280;20720;48.886;9.388;2023-05-23T01:33:28;98123.84;;;19.65;100.00
34482;BME280;20720;48.886;9.388;2023-05-23T01:35:57;98122.75;;;19.61;100.00
34482;BME280;20720;48.886;9.388;2023-05-23T01:38:25;98118.78;;;19.63;100.00
34482;BME280;20720;48.886;9.388;2023-05-23T01:40:52;98123.59;;;19.72;100.00
34482;BME280;20720;48.886;9.388;2023-05-23T01:43:17;98120.38;;;19.64;100.00
34482;BME280;20720;48.886;9.388;2023-05-23T01:45:42;98118.78;;;19.58;100.00
34482;BME280;20720;48.886;9.388;2023-05-23T01:48:08;98120.91;;;19.66;100.00
34482;BME280;20720;48.886;9.388;2023-05-23T01:50:34;98110.75;;;19.02;100.00
34482;BME280;20720;48.886;9.388;2023-05-23T01:53:00;98118.63;;;19.28;100.00
34482;BME280;20720;48.886;9.388;2023-05-23T01:55:26;98130.75;;;19.56;100.00
34482;BME280;20720;48.886;9.388;2023-05-23T01:57:55;98124.88;;;19.54;100.00
34482;BME280;20720;48.886;9.388;2023-05-23T02:00:21;98129.94;;;19.50;100.00
34482;BME280;20720;48.886;9.388;2023-05-23T02:02:47;98129.59;;;19.42;100.00
34482;BME280;20720;48.886;9.388;2023-05-23T02:05:12;98134.00;;;19.16;100.00
34482;BME280;20720;48.886;9.388;2023-05-23T02:07:38;98099.59;;;18.63;100.00
34482;BME280;20720;48.886;9.388;2023-05-23T02:10:05;98115.28;;;19.01;100.00
34482;BME280;20720;48.886;9.388;2023-05-23T02:12:30;98119.75;;;19.42;100.00
34482;BME280;20720;48.886;9.388;2023-05-23T02:14:55;98130.81;;;19.19;100.00
34482;BME280;20720;48.886;9.388;2023-05-23T02:17:21;98127.25;;;18.99;100.00
34482;BME280;20720;48.886;9.388;2023-05-23T02:19:47;98131.72;;;19.40;100.00
34482;BME280;20720;48.886;9.388;2023-05-23T02:22:13;98140.06;;;19.48;100.00
34482;BME280;20720;48.886;9.388;2023-05-23T02:24:39;98135.81;;;19.06;100.00
34482;BME280;20720;48.886;9.388;2023-05-23T02:27:05;98142.16;;;19.46;100.00
34482;BME280;20720;48.886;9.388;2023-05-23T02:29:31;98143.59;;;19.64;100.00
34482;BME280;20720;48.886;9.388;2023-05-23T02:31:56;98133.41;;;19.51;100.00
34482;BME280;20720;48.886;9.388;2023-05-23T02:34:22;98137.59;;;19.32;100.00
34482;BME280;20720;48.886;9.388;2023-05-23T02:36:47;98132.00;;;19.38;100.00
34482;BME280;20720;48.886;9.388;2023-05-23T02:39:12;98149.72;;;19.69;100.00
34482;BME280;20720;48.886;9.388;2023-05-23T02:41:37;98138.59;;;19.31;100.00
34482;BME280;20720;48.886;9.388;2023-05-23T02:44:03;98134.53;;;19.13;100.00
34482;BME280;20720;48.886;9.388;2023-05-23T02:46:28;98144.13;;;19.66;100.00
34482;BME280;20720;48.886;9.388;2023-05-23T02:48:53;98143.34;;;19.76;100.00
34482;BME280;20720;48.886;9.388;2023-05-23T02:51:19;98147.88;;;19.80;100.00
34482;BME280;20720;48.886;9.388;2023-05-23T02:53:44;98134.66;;;19.33;100.00
34482;BME280;20720;48.886;9.388;2023-05-23T02:56:10;98140.69;;;19.86;100.00
34482;BME280;20720;48.886;9.388;2023-05-23T02:58:37;98146.63;;;20.13;100.00
34482;BME280;20720;48.886;9.388;2023-05-23T03:01:04;98155.97;;;20.15;100.00
34482;BME280;20720;48.886;9.388;2023-05-23T03:03:29;98152.81;;;20.18;100.00
34482;BME280;20720;48.886;9.388;2023-05-23T03:05:59;98155.19;;;20.15;100.00
34482;BME280;20720;48.886;9.388;2023-05-23T03:08:24;98154.41;;;20.29;100.00
34482;BME280;20720;48.886;9.388;2023-05-23T03:10:50;98155.78;;;20.32;100.00
34482;BME280;20720;48.886;9.388;2023-05-23T03:13:16;98161.38;;;20.35;100.00
34482;BME280;20720;48.886;9.388;2023-05-23T03:15:41;98158.16;;;20.38;100.00
34482;BME280;20720;48.886;9.388;2023-05-23T03:18:06;98168.59;;;20.45;100.00
34482;BME280;20720;48.886;9.388;2023-05-23T03:20:32;98167.00;;;20.49;100.00
34482;BME280;20720;48.886;9.388;2023-05-23T03:22:57;98167.50;;;20.46;100.00
34482;BME280;20720;48.886;9.388;2023-05-23T03:25:23;98166.19;;;20.48;100.00
34482;BME280;20720;48.886;9.388;2023-05-23T03:27:48;98170.72;;;20.58;100.00
34482;BME280;20720;48.886;9.388;2023-05-23T03:30:13;98174.75;;;20.60;100.00
34482;BME280;20720;48.886;9.388;2023-05-23T03:32:39;98175.00;;;20.49;100.00
34482;BME280;20720;48.886;9.388;2023-05-23T03:35:05;98170.34;;;19.99;100.00
34482;BME280;20720;48.886;9.388;2023-05-23T03:37:30;98160.94;;;19.82;100.00
34482;BME280;20720;48.886;9.388;2023-05-23T03:39:56;98161.16;;;19.60;100.00
34482;BME280;20720;48.886;9.388;2023-05-23T03:42:21;98147.06;;;19.75;100.00
34482;BME280;20720;48.886;9.388;2023-05-23T03:44:46;98157.53;;;19.96;100.00
34482;BME280;20720;48.886;9.388;2023-05-23T03:47:11;98158.16;;;20.18;100.00
34482;BME280;20720;48.886;9.388;2023-05-23T03:49:37;98164.28;;;20.29;100.00
34482;BME280;20720;48.886;9.388;2023-05-23T03:52:02;98164.31;;;20.54;100.00
34482;BME280;20720;48.886;9.388;2023-05-23T03:54:28;98165.91;;;20.75;100.00
34482;BME280;20720;48.886;9.388;2023-05-23T03:56:53;98164.84;;;20.81;100.00
34482;BME280;20720;48.886;9.388;2023-05-23T03:59:19;98171.00;;;20.67;100.00
34482;BME280;20720;48.886;9.388;2023-05-23T04:01:44;98170.44;;;20.75;100.00
34482;BME280;20720;48.886;9.388;2023-05-23T04:04:09;98169.13;;;20.47;100.00
34482;BME280;20720;48.886;9.388;2023-05-23T04:06:34;98172.06;;;20.66;100.00
34482;BME280;20720;48.886;9.388;2023-05-23T04:09:00;98178.75;;;20.68;100.00
34482;BME280;20720;48.886;9.388;2023-05-23T04:11:26;98177.16;;;20.72;100.00
34482;BME280;20720;48.886;9.388;2023-05-23T04:13:52;98183.53;;;20.96;100.00
34482;BME280;20720;48.886;9.388;2023-05-23T04:16:18;98183.56;;;21.06;100.00
34482;BME280;20720;48.886;9.388;2023-05-23T04:18:43;98177.66;;;21.09;100.00
34482;BME280;20720;48.886;9.388;2023-05-23T04:21:11;98184.06;;;20.98;100.00
34482;BME280;20720;48.886;9.388;2023-05-23T04:23:36;98185.94;;;21.03;100.00
34482;BME280;20720;48.886;9.388;2023-05-23T04:26:02;98184.59;;;21.10;100.00
34482;BME280;20720;48.886;9.388;2023-05-23T04:28:30;98189.69;;;21.17;100.00
34482;BME280;20720;48.886;9.388;2023-05-23T04:30:55;98185.63;;;21.34;100.00
34482;BME280;20720;48.886;9.388;2023-05-23T04:33:20;98187.25;;;21.25;100.00
34482;BME280;20720;48.886;9.388;2023-05-23T04:35:46;98186.16;;;21.41;100.00
34482;BME280;20720;48.886;9.388;2023-05-23T04:38:11;98185.66;;;21.24;100.00
34482;BME280;20720;48.886;9.388;2023-05-23T04:40:37;98191.03;;;21.19;100.00
34482;BME280;20720;48.886;9.388;2023-05-23T04:43:03;98191.50;;;21.41;100.00
34482;BME280;20720;48.886;9.388;2023-05-23T04:45:28;98193.91;;;21.33;100.00
34482;BME280;20720;48.886;9.388;2023-05-23T04:47:53;98194.16;;;21.41;100.00
34482;BME280;20720;48.886;9.388;2023-05-23T04:50:19;98197.38;;;21.33;100.00
34482;BME280;20720;48.886;9.388;2023-05-23T04:52:46;98198.16;;;21.49;100.00
34482;BME280;20720;48.886;9.388;2023-05-23T04:55:12;98195.22;;;21.56;100.00
34482;BME280;20720;48.886;9.388;2023-05-23T04:57:37;98202.94;;;21.57;100.00
34482;BME280;20720;48.886;9.388;2023-05-23T05:00:03;98205.91;;;21.50;100.00
34482;BME280;20720;48.886;9.388;2023-05-23T05:02:34;98203.78;;;21.47;100.00
34482;BME280;20720;48.886;9.388;2023-05-23T05:05:00;98199.94;;;21.74;100.00
34482;BME280;20720;48.886;9.388;2023-05-23T05:07:26;98208.31;;;21.57;100.00
34482;BME280;20720;48.886;9.388;2023-05-23T05:09:53;98210.03;;;21.92;100.00
34482;BME280;20720;48.886;9.388;2023-05-23T05:12:18;98211.88;;;22.01;100.00
34482;BME280;20720;48.886;9.388;2023-05-23T05:14:43;98213.84;;;21.76;100.00
34482;BME280;20720;48.886;9.388;2023-05-23T05:17:09;98215.44;;;21.77;100.00
34482;BME280;20720;48.886;9.388;2023-05-23T05:19:34;98219.44;;;21.89;100.00
34482;BME280;20720;48.886;9.388;2023-05-23T05:21:59;98220.97;;;22.10;100.00
34482;BME280;20720;48.886;9.388;2023-05-23T05:24:25;98229.91;;;21.66;100.00
34482;BME280;20720;48.886;9.388;2023-05-23T05:26:52;98224.53;;;21.76;100.00
34482;BME280;20720;48.886;9.388;2023-05-23T05:29:18;98234.69;;;21.79;100.00
34482;BME280;20720;48.886;9.388;2023-05-23T05:31:43;98229.84;;;22.01;100.00
34482;BME280;20720;48.886;9.388;2023-05-23T05:34:09;98224.13;;;22.17;100.00
34482;BME280;20720;48.886;9.388;2023-05-23T05:36:35;98231.97;;;21.94;100.00
34482;BME280;20720;48.886;9.388;2023-05-23T05:39:00;98228.69;;;22.12;100.00
34482;BME280;20720;48.886;9.388;2023-05-23T05:41:26;98228.63;;;22.22;100.00
34482;BME280;20720;48.886;9.388;2023-05-23T05:43:51;98237.03;;;22.49;100.00
34482;BME280;20720;48.886;9.388;2023-05-23T05:46:17;98223.72;;;22.39;100.00
34482;BME280;20720;48.886;9.388;2023-05-23T05:48:42;98229.06;;;22.44;100.00
34482;BME280;20720;48.886;9.388;2023-05-23T05:51:07;98230.97;;;22.38;100.00
34482;BME280;20720;48.886;9.388;2023-05-23T05:53:33;98228.53;;;22.42;100.00
34482;BME280;20720;48.886;9.388;2023-05-23T05:55:58;98233.53;;;22.92;100.00
34482;BME280;20720;48.886;9.388;2023-05-23T05:58:23;98223.88;;;23.25;100.00
34482;BME280;20720;48.886;9.388;2023-05-23T06:00:48;98236.97;;;22.98;100.00
34482;BME280;20720;48.886;9.388;2023-05-23T06:03:14;98235.56;;;23.05;100.00
34482;BME280;20720;48.886;9.388;2023-05-23T06:05:40;98241.91;;;23.19;100.00
34482;BME280;20720;48.886;9.388;2023-05-23T06:08:05;98244.88;;;23.13;100.00
34482;BME280;20720;48.886;9.388;2023-05-23T06:10:31;98250.91;;;23.28;100.00
34482;BME280;20720;48.886;9.388;2023-05-23T06:12:57;98244.75;;;23.57;100.00
34482;BME280;20720;48.886;9.388;2023-05-23T06:15:23;98249.50;;;23.07;100.00
34482;BME280;20720;48.886;9.388;2023-05-23T06:17:49;98254.66;;;22.65;100.00
34482;BME280;20720;48.886;9.388;2023-05-23T06:20:15;98259.50;;;22.58;100.00
34482;BME280;20720;48.886;9.388;2023-05-23T06:22:40;98255.97;;;22.19;100.00
34482;BME280;20720;48.886;9.388;2023-05-23T06:25:06;98255.44;;;22.71;100.00
34482;BME280;20720;48.886;9.388;2023-05-23T06:27:31;98251.25;;;22.88;100.00
34482;BME280;20720;48.886;9.388;2023-05-23T06:29:57;98254.63;;;22.70;100.00
34482;BME280;20720;48.886;9.388;2023-05-23T06:32:22;98260.97;;;22.79;100.00
34482;BME280;20720;48.886;9.388;2023-05-23T06:34:47;98260.59;;;22.57;100.00
34482;BME280;20720;48.886;9.388;2023-05-23T06:37:12;98262.47;;;22.95;100.00
34482;BME280;20720;48.886;9.388;2023-05-23T06:39:38;98267.72;;;23.10;100.00
34482;BME280;20720;48.886;9.388;2023-05-23T06:42:03;98275.81;;;23.39;100.00
34482;BME280;20720;48.886;9.388;2023-05-23T06:44:28;98284.91;;;23.04;100.00
34482;BME280;20720;48.886;9.388;2023-05-23T06:46:54;98280.16;;;23.59;100.00
34482;BME280;20720;48.886;9.388;2023-05-23T06:49:22;98282.16;;;23.48;100.00
34482;BME280;20720;48.886;9.388;2023-05-23T06:51:47;98286.47;;;23.73;100.00
34482;BME280;20720;48.886;9.388;2023-05-23T06:54:13;98290.44;;;23.52;100.00
34482;BME280;20720;48.886;9.388;2023-05-23T06:56:38;98292.66;;;23.45;100.00
34482;BME280;20720;48.886;9.388;2023-05-23T06:59:03;98289.47;;;23.38;100.00
34482;BME280;20720;48.886;9.388;2023-05-23T07:01:29;98295.28;;;23.16;100.00
34482;BME280;20720;48.886;9.388;2023-05-23T07:03:54;98299.00;;;22.32;100.00
34482;BME280;20720;48.886;9.388;2023-05-23T07:06:20;98299.78;;;22.87;100.00
34482;BME280;20720;48.886;9.388;2023-05-23T07:08:45;98304.34;;;22.32;100.00
34482;BME280;20720;48.886;9.388;2023-05-23T07:11:10;98303.63;;;22.76;100.00
34482;BME280;20720;48.886;9.388;2023-05-23T07:13:36;98299.88;;;23.10;100.00
34482;BME280;20720;48.886;9.388;2023-05-23T07:16:01;98305.00;;;23.07;100.00
34482;BME280;20720;48.886;9.388;2023-05-23T07:18:26;98308.09;;;22.31;100.00
34482;BME280;20720;48.886;9.388;2023-05-23T07:20:52;98312.72;;;22.11;100.00
34482;BME280;20720;48.886;9.388;2023-05-23T07:23:17;98321.16;;;22.48;100.00
34482;BME280;20720;48.886;9.388;2023-05-23T07:25:43;98314.69;;;22.59;100.00
34482;BME280;20720;48.886;9.388;2023-05-23T07:28:08;98321.13;;;22.53;100.00
34482;BME280;20720;48.886;9.388;2023-05-23T07:30:34;98315.81;;;22.43;100.00
34482;BME280;20720;48.886;9.388;2023-05-23T07:33:00;98319.00;;;22.45;100.00
34482;BME280;20720;48.886;9.388;2023-05-23T07:35:25;98317.44;;;22.93;100.00
34482;BME280;20720;48.886;9.388;2023-05-23T07:37:57;98328.75;;;23.23;100.00
34482;BME280;20720;48.886;9.388;2023-05-23T07:40:22;98321.59;;;22.70;100.00
34482;BME280;20720;48.886;9.388;2023-05-23T07:42:48;98329.63;;;22.70;100.00
34482;BME280;20720;48.886;9.388;2023-05-23T07:45:13;98330.25;;;22.52;100.00
34482;BME280;20720;48.886;9.388;2023-05-23T07:47:38;98323.69;;;22.78;100.00
34482;BME280;20720;48.886;9.388;2023-05-23T07:50:04;98326.28;;;23.61;100.00
34482;BME280;20720;48.886;9.388;2023-05-23T07:52:30;98331.38;;;24.38;100.00
34482;BME280;20720;48.886;9.388;2023-05-23T07:54:57;98333.31;;;25.63;100.00
34482;BME280;20720;48.886;9.388;2023-05-23T07:57:22;98361.00;;;26.90;95.10
34482;BME280;20720;48.886;9.388;2023-05-23T07:59:48;98371.41;;;26.56;96.10
34482;BME280;20720;48.886;9.388;2023-05-23T08:02:14;98374.94;;;26.70;91.64
34482;BME280;20720;48.886;9.388;2023-05-23T08:04:39;98380.97;;;25.94;94.66
34482;BME280;20720;48.886;9.388;2023-05-23T08:07:04;98377.75;;;25.92;92.29
34482;BME280;20720;48.886;9.388;2023-05-23T08:09:31;98382.91;;;25.25;96.64
34482;BME280;20720;48.886;9.388;2023-05-23T08:11:57;98388.38;;;26.16;93.60
34482;BME280;20720;48.886;9.388;2023-05-23T08:14:22;98385.38;;;26.18;94.64
34482;BME280;20720;48.886;9.388;2023-05-23T08:16:47;98391.84;;;25.39;100.00
34482;BME280;20720;48.886;9.388;2023-05-23T08:19:13;98398.41;;;25.97;95.27
34482;BME280;20720;48.886;9.388;2023-05-23T08:21:38;98392.78;;;25.80;95.90
34482;BME280;20720;48.886;9.388;2023-05-23T08:24:04;98402.72;;;25.66;94.91
34482;BME280;20720;48.886;9.388;2023-05-23T08:26:29;98404.66;;;27.28;86.74
34482;BME280;20720;48.886;9.388;2023-05-23T08:29:00;98407.44;;;26.06;89.28
34482;BME280;20720;48.886;9.388;2023-05-23T08:31:27;98408.22;;;25.74;92.77
34482;BME280;20720;48.886;9.388;2023-05-23T08:33:52;98410.38;;;25.22;94.35
34482;BME280;20720;48.886;9.388;2023-05-23T08:36:17;98407.16;;;25.19;93.18
34482;BME280;20720;48.886;9.388;2023-05-23T08:38:42;98414.75;;;25.55;94.28
34482;BME280;20720;48.886;9.388;2023-05-23T08:41:15;98411.44;;;25.02;95.14
34482;BME280;20720;48.886;9.388;2023-05-23T08:43:42;98417.28;;;25.46;92.63
34482;BME280;20720;48.886;9.388;2023-05-23T08:46:08;98421.25;;;24.51;96.47
34482;BME280;20720;48.886;9.388;2023-05-23T08:48:33;98420.16;;;24.75;97.60
34482;BME280;20720;48.886;9.388;2023-05-23T08:50:59;98426.50;;;24.84;96.97
34482;BME280;20720;48.886;9.388;2023-05-23T08:53:27;98430.31;;;27.04;86.13
34482;BME280;20720;48.886;9.388;2023-05-23T08:55:53;98437.44;;;27.22;80.55
34482;BME280;20720;48.886;9.388;2023-05-23T08:58:22;98433.00;;;26.63;83.04
34482;BME280;20720;48.886;9.388;2023-05-23T09:00:53;98429.31;;;24.74;94.03
34482;BME280;20720;48.886;9.388;2023-05-23T09:03:19;98435.84;;;24.63;98.06
34482;BME280;20720;48.886;9.388;2023-05-23T09:05:45;98431.56;;;25.47;92.69
34482;BME280;20720;48.886;9.388;2023-05-23T09:08:11;98445.28;;;27.10;81.79
34482;BME280;20720;48.886;9.388;2023-05-23T09:10:37;98444.88;;;27.52;80.20
34482;BME280;20720;48.886;9.388;2023-05-23T09:13:04;98446.31;;;26.00;85.32
34482;BME280;20720;48.886;9.388;2023-05-23T09:15:29;98445.66;;;24.54;92.57
34482;BME280;20720;48.886;9.388;2023-05-23T09:17:59;98449.41;;;24.30;96.67
34482;BME280;20720;48.886;9.388;2023-05-23T09:20:26;98455.38;;;24.21;98.38
34482;BME280;20720;48.886;9.388;2023-05-23T09:22:53;98452.31;;;24.33;96.39
34482;BME280;20720;48.886;9.388;2023-05-23T09:25:19;98449.97;;;24.26;93.71
34482;BME280;20720;48.886;9.388;2023-05-23T09:27:45;98453.94;;;24.58;91.65
34482;BME280;20720;48.886;9.388;2023-05-23T09:30:10;98462.72;;;23.44;96.01
34482;BME280;20720;48.886;9.388;2023-05-23T09:32:36;98458.06;;;24.97;93.92
34482;BME280;20720;48.886;9.388;2023-05-23T09:35:03;98459.94;;;26.22;84.03
34482;BME280;20720;48.886;9.388;2023-05-23T09:39:58;98462.44;;;26.19;80.90
34482;BME280;20720;48.886;9.388;2023-05-23T09:42:24;98452.47;;;26.46;77.81
34482;BME280;20720;48.886;9.388;2023-05-23T09:44:50;98457.22;;;26.81;77.77
34482;BME280;20720;48.886;9.388;2023-05-23T09:47:16;98465.47;;;26.58;77.31
34482;BME280;20720;48.886;9.388;2023-05-23T09:49:45;98467.66;;;25.03;82.80
34482;BME280;20720;48.886;9.388;2023-05-23T09:52:10;98471.47;;;24.79;85.43
34482;BME280;20720;48.886;9.388;2023-05-23T09:54:36;98473.63;;;24.77;85.88
34482;BME280;20720;48.886;9.388;2023-05-23T09:57:02;98467.97;;;25.21;82.39
34482;BME280;20720;48.886;9.388;2023-05-23T09:59:31;98472.03;;;25.37;81.03
34482;BME280;20720;48.886;9.388;2023-05-23T10:02:01;98470.38;;;26.10;78.53
34482;BME280;20720;48.886;9.388;2023-05-23T10:04:30;98476.84;;;25.77;78.92
34482;BME280;20720;48.886;9.388;2023-05-23T10:07:03;98465.03;;;26.24;76.73
34482;BME280;20720;48.886;9.388;2023-05-23T10:09:32;98477.88;;;26.99;73.70
34482;BME280;20720;48.886;9.388;2023-05-23T10:15:00;98476.44;;;29.10;68.46
34482;BME280;20720;48.886;9.388;2023-05-23T10:20:03;98462.19;;;29.69;64.00
34482;BME280;20720;48.886;9.388;2023-05-23T10:22:34;98464.53;;;29.19;63.01
34482;BME280;20720;48.886;9.388;2023-05-23T10:25:01;98485.88;;;27.89;68.03
34482;BME280;20720;48.886;9.388;2023-05-23T10:27:26;98477.16;;;29.41;61.94
34482;BME280;20720;48.886;9.388;2023-05-23T10:29:51;98484.72;;;29.05;64.21
34482;BME280;20720;48.886;9.388;2023-05-23T10:32:17;98487.44;;;31.17;58.71
34482;BME280;20720;48.886;9.388;2023-05-23T10:37:28;98478.09;;;29.45;62.52
34482;BME280;20720;48.886;9.388;2023-05-23T10:45:42;98488.22;;;27.47;65.48
34482;BME280;20720;48.886;9.388;2023-05-23T10:50:45;98486.16;;;26.89;66.85
34482;BME280;20720;48.886;9.388;2023-05-23T10:53:15;98481.41;;;26.27;69.96
34482;BME280;20720;48.886;9.388;2023-05-23T10:55:40;98485.31;;;26.35;71.04
34482;BME280;20720;48.886;9.388;2023-05-23T10:58:16;98490.22;;;25.82;72.78
34482;BME280;20720;48.886;9.388;2023-05-23T11:00:50;98487.28;;;26.29;71.58
34482;BME280;20720;48.886;9.388;2023-05-23T11:03:16;98495.13;;;26.12;70.65
34482;BME280;20720;48.886;9.388;2023-05-23T11:05:47;98493.09;;;26.50;68.47
34482;BME280;20720;48.886;9.388;2023-05-23T11:08:19;98493.88;;;26.04;71.05
34482;BME280;20720;48.886;9.388;2023-05-23T11:10:54;98491.34;;;26.13;70.41
34482;BME280;20720;48.886;9.388;2023-05-23T11:13:21;98495.56;;;26.33;67.89
34482;BME280;20720;48.886;9.388;2023-05-23T11:15:47;98498.78;;;26.21;68.91
34482;BME280;20720;48.886;9.388;2023-05-23T11:18:25;98496.22;;;26.43;68.23
34482;BME280;20720;48.886;9.388;2023-05-23T11:20:52;98503.66;;;26.33;68.75
34482;BME280;20720;48.886;9.388;2023-05-23T11:23:18;98501.66;;;25.74;71.57
34482;BME280;20720;48.886;9.388;2023-05-23T11:25:45;98501.66;;;25.74;71.28
34482;BME280;20720;48.886;9.388;2023-05-23T11:28:12;98508.19;;;26.05;71.88
34482;BME280;20720;48.886;9.388;2023-05-23T11:30:38;98506.69;;;25.62;69.92
34482;BME280;20720;48.886;9.388;2023-05-23T11:33:08;98513.53;;;26.24;70.99
34482;BME280;20720;48.886;9.388;2023-05-23T11:35:37;98511.81;;;26.60;69.93
34482;BME280;20720;48.886;9.388;2023-05-23T11:38:04;98506.38;;;25.82;68.67
34482;BME280;20720;48.886;9.388;2023-05-23T11:40:31;98506.38;;;26.46;69.02
34482;BME280;20720;48.886;9.388;2023-05-23T11:42:58;98497.00;;;26.30;71.12
34482;BME280;20720;48.886;9.388;2023-05-23T11:45:25;98497.88;;;27.83;64.11
34482;BME280;20720;48.886;9.388;2023-05-23T11:47:51;98498.81;;;28.01;63.96
34482;BME280;20720;48.886;9.388;2023-05-23T11:50:17;98497.78;;;28.41;60.82
34482;BME280;20720;48.886;9.388;2023-05-23T11:52:44;98504.34;;;27.96;60.85
34482;BME280;20720;48.886;9.388;2023-05-23T11:55:18;98500.38;;;28.16;60.94
34482;BME280;20720;48.886;9.388;2023-05-23T11:57:44;98496.56;;;27.10;62.09
34482;BME280;20720;48.886;9.388;2023-05-23T12:00:10;98497.41;;;27.46;61.15
34482;BME280;20720;48.886;9.388;2023-05-23T12:02:44;98502.19;;;27.49;61.44
34482;BME280;20720;48.886;9.388;2023-05-23T12:05:11;98487.97;;;27.57;62.20
34482;BME280;20720;48.886;9.388;2023-05-23T12:07:46;98490.13;;;26.05;70.01
34482;BME280;20720;48.886;9.388;2023-05-23T12:10:16;98495.44;;;27.24;64.90
34482;BME280;20720;48.886;9.388;2023-05-23T12:12:42;98491.84;;;27.02;65.65
34482;BME280;20720;48.886;9.388;2023-05-23T12:15:09;98485.53;;;27.20;65.40
34482;BME280;20720;48.886;9.388;2023-05-23T12:17:36;98491.25;;;27.05;64.22
34482;BME280;20720;48.886;9.388;2023-05-23T12:20:04;98487.00;;;26.44;64.44
34482;BME280;20720;48.886;9.388;2023-05-23T12:22:29;98491.66;;;28.80;60.96
34482;BME280;20720;48.886;9.388;2023-05-23T12:24:55;98483.09;;;29.04;58.20
34482;BME280;20720;48.886;9.388;2023-05-23T12:27:27;98475.91;;;30.53;53.39
34482;BME280;20720;48.886;9.388;2023-05-23T12:30:07;98484.97;;;29.85;55.29
34482;BME280;20720;48.886;9.388;2023-05-23T12:32:33;98475.09;;;29.63;53.33
34482;BME280;20720;48.886;9.388;2023-05-23T12:34:59;98471.75;;;29.92;54.64
34482;BME280;20720;48.886;9.388;2023-05-23T12:37:25;98472.91;;;29.01;56.11
34482;BME280;20720;48.886;9.388;2023-05-23T12:39:50;98473.34;;;29.93;52.55
34482;BME280;20720;48.886;9.388;2023-05-23T12:42:15;98462.16;;;29.18;56.81
34482;BME280;20720;48.886;9.388;2023-05-23T12:44:41;98467.31;;;28.49;56.99
34482;BME280;20720;48.886;9.388;2023-05-23T12:47:08;98465.91;;;28.21;58.12
34482;BME280;20720;48.886;9.388;2023-05-23T12:49:34;98473.63;;;27.92;57.88
34482;BME280;20720;48.886;9.388;2023-05-23T12:51:59;98468.88;;;28.50;57.58
34482;BME280;20720;48.886;9.388;2023-05-23T12:54:25;98466.34;;;29.75;55.04
34482;BME280;20720;48.886;9.388;2023-05-23T12:56:50;98459.94;;;29.62;54.86
34482;BME280;20720;48.886;9.388;2023-05-23T12:59:15;98462.19;;;29.86;54.27
34482;BME280;20720;48.886;9.388;2023-05-23T13:01:40;98458.84;;;31.40;49.85
34482;BME280;20720;48.886;9.388;2023-05-23T13:04:06;98454.38;;;29.67;52.62
34482;BME280;20720;48.886;9.388;2023-05-23T13:06:31;98452.47;;;29.42;53.09
34482;BME280;20720;48.886;9.388;2023-05-23T13:08:57;98461.09;;;28.18;56.43
34482;BME280;20720;48.886;9.388;2023-05-23T13:11:23;98454.09;;;28.48;56.84
34482;BME280;20720;48.886;9.388;2023-05-23T13:13:49;98459.50;;;27.73;57.23
34482;BME280;20720;48.886;9.388;2023-05-23T13:16:15;98461.59;;;26.91;60.40